Mafeking, Canada
Current Conditions -  °F | °C
As of 12:00 PM on Saturday 25 Oct 2014 (Local Time) from CYQD Reporting Station
Overcast Overcast  
Wind Chill: 28°   Ceiling: 2000
Heat Index: 39°   Visibility: 15mi
Dew Point: 27°   Wind: 25mph
Humidity: 61%   Direction: 300°WNW
Pressure: 29.9"   Gusts: 31mph
Location:  52.68°N, 101.1°W
Report Text: CYQD 251700Z 30022G27KT 15SM OVC020 04/M03 A2990 RMK SC8SLP135
Loading
Personal Weather Stations






























Interactive Weather Map
Tropical Storm Tracking
New forecast layout! Learn more

10-Day Weather Forecast

Advertisements
Track Severe Weather on mobile